Terminal Aerodrome Forecast
Issued by NWS Buffalo, NY

Home | Current Version | Previous Version | Text Only | Print | Product List | Glossary On
Versions: 1 2 3 4 5 6 7 8 9 10 11 12 13 14 15 16 17 18 19 20 21 22 23 24
000
FTUS41 KBUF 261900 AAA
TAFART
TAF AMD
KART 261906Z 2619/2718 04009KT P6SM OVC060
     FM262030 03009KT 1SM -SN OVC050
     FM262300 03009KT 3SM -SHSN OVC025
     FM270200 02008KT 6SM BR VCSH OVC025
     FM270400 02007KT P6SM OVC035
     FM271300 36004KT P6SM BKN050=

USA.gov is the U.S. government's official web portal to all federal, state and local government web resources and services.